sensor_id;sensor_type;location;lat;lon;timestamp;temperature;humidity
54140;DHT22;40046;53.254;5.900;2022-09-09T00:00:33;14.40;99.90
54140;DHT22;40046;53.254;5.900;2022-09-09T00:03:24;14.40;99.90
54140;DHT22;40046;53.254;5.900;2022-09-09T00:06:21;14.40;99.90
54140;DHT22;40046;53.254;5.900;2022-09-09T00:09:06;14.40;99.90
54140;DHT22;40046;53.254;5.900;2022-09-09T00:17:18;14.30;99.90
54140;DHT22;40046;53.254;5.900;2022-09-09T00:20:02;14.30;99.90
54140;DHT22;40046;53.254;5.900;2022-09-09T00:22:32;14.30;99.90
54140;DHT22;40046;53.254;5.900;2022-09-09T00:25:10;14.30;99.90
54140;DHT22;40046;53.254;5.900;2022-09-09T00:27:44;14.30;99.90
54140;DHT22;40046;53.254;5.900;2022-09-09T00:32:40;14.20;99.90
54140;DHT22;40046;53.254;5.900;2022-09-09T00:35:20;14.20;99.90
54140;DHT22;40046;53.254;5.900;2022-09-09T00:37:48;14.20;99.90
54140;DHT22;40046;53.254;5.900;2022-09-09T00:40:24;14.20;99.90
54140;DHT22;40046;53.254;5.900;2022-09-09T00:57:36;14.10;99.90
54140;DHT22;40046;53.254;5.900;2022-09-09T01:00:22;14.10;99.90
54140;DHT22;40046;53.254;5.900;2022-09-09T01:06:13;14.10;99.90
54140;DHT22;40046;53.254;5.900;2022-09-09T01:14:49;14.10;99.90
54140;DHT22;40046;53.254;5.900;2022-09-09T01:17:22;14.00;99.90
54140;DHT22;40046;53.254;5.900;2022-09-09T01:28:47;14.00;99.90
54140;DHT22;40046;53.254;5.900;2022-09-09T01:31:20;14.00;99.90
54140;DHT22;40046;53.254;5.900;2022-09-09T01:33:47;14.00;99.90
54140;DHT22;40046;53.254;5.900;2022-09-09T01:36:21;14.00;99.90
54140;DHT22;40046;53.254;5.900;2022-09-09T01:38:51;14.00;99.90
54140;DHT22;40046;53.254;5.900;2022-09-09T01:41:18;14.00;99.90
54140;DHT22;40046;53.254;5.900;2022-09-09T01:44:00;13.90;99.90
54140;DHT22;40046;53.254;5.900;2022-09-09T01:46:29;13.90;99.90
54140;DHT22;40046;53.254;5.900;2022-09-09T01:48:56;13.90;99.90
54140;DHT22;40046;53.254;5.900;2022-09-09T01:51:23;13.90;99.90
54140;DHT22;40046;53.254;5.900;2022-09-09T01:53:49;13.90;99.90
54140;DHT22;40046;53.254;5.900;2022-09-09T01:59:25;13.90;99.90
54140;DHT22;40046;53.254;5.900;2022-09-09T02:04:39;13.90;99.90
54140;DHT22;40046;53.254;5.900;2022-09-09T02:09:47;13.80;99.90
54140;DHT22;40046;53.254;5.900;2022-09-09T02:12:18;13.80;99.90
54140;DHT22;40046;53.254;5.900;2022-09-09T02:14:56;13.80;99.90
54140;DHT22;40046;53.254;5.900;2022-09-09T02:17:31;13.80;99.90
54140;DHT22;40046;53.254;5.900;2022-09-09T02:20:12;13.80;99.90
54140;DHT22;40046;53.254;5.900;2022-09-09T02:22:48;13.80;99.90
54140;DHT22;40046;53.254;5.900;2022-09-09T02:25:19;13.70;99.90
54140;DHT22;40046;53.254;5.900;2022-09-09T02:27:50;13.70;99.90
54140;DHT22;40046;53.254;5.900;2022-09-09T02:30:18;13.70;99.90
54140;DHT22;40046;53.254;5.900;2022-09-09T02:32:52;13.70;99.90
54140;DHT22;40046;53.254;5.900;2022-09-09T02:35:25;13.70;99.90
54140;DHT22;40046;53.254;5.900;2022-09-09T02:37:55;13.70;99.90
54140;DHT22;40046;53.254;5.900;2022-09-09T02:40:23;13.70;99.90
54140;DHT22;40046;53.254;5.900;2022-09-09T02:42:56;13.70;99.90
54140;DHT22;40046;53.254;5.900;2022-09-09T02:45:25;13.70;99.90
54140;DHT22;40046;53.254;5.900;2022-09-09T02:48:18;13.70;99.90
54140;DHT22;40046;53.254;5.900;2022-09-09T02:51:08;13.70;99.90
54140;DHT22;40046;53.254;5.900;2022-09-09T02:53:56;13.70;99.90
54140;DHT22;40046;53.254;5.900;2022-09-09T02:56:25;13.70;99.90
54140;DHT22;40046;53.254;5.900;2022-09-09T02:58:55;13.70;99.90
54140;DHT22;40046;53.254;5.900;2022-09-09T03:01:21;13.70;99.90
54140;DHT22;40046;53.254;5.900;2022-09-09T03:03:47;13.70;99.90
54140;DHT22;40046;53.254;5.900;2022-09-09T03:06:15;13.70;99.90
54140;DHT22;40046;53.254;5.900;2022-09-09T03:08:45;13.60;99.90
54140;DHT22;40046;53.254;5.900;2022-09-09T03:11:11;13.60;99.90
54140;DHT22;40046;53.254;5.900;2022-09-09T03:13:37;13.60;99.90
54140;DHT22;40046;53.254;5.900;2022-09-09T03:16:04;13.60;99.90
54140;DHT22;40046;53.254;5.900;2022-09-09T03:18:34;13.60;99.90
54140;DHT22;40046;53.254;5.900;2022-09-09T03:21:00;13.60;99.90
54140;DHT22;40046;53.254;5.900;2022-09-09T03:23:28;13.60;99.90
54140;DHT22;40046;53.254;5.900;2022-09-09T03:25:56;13.60;99.90
54140;DHT22;40046;53.254;5.900;2022-09-09T03:28:31;13.60;99.90
54140;DHT22;40046;53.254;5.900;2022-09-09T03:31:03;13.60;99.90
54140;DHT22;40046;53.254;5.900;2022-09-09T03:33:33;13.60;99.90
54140;DHT22;40046;53.254;5.900;2022-09-09T03:36:02;13.60;99.90
54140;DHT22;40046;53.254;5.900;2022-09-09T03:38:28;13.60;99.90
54140;DHT22;40046;53.254;5.900;2022-09-09T03:40:55;13.60;99.90
54140;DHT22;40046;53.254;5.900;2022-09-09T03:43:24;13.60;99.90
54140;DHT22;40046;53.254;5.900;2022-09-09T03:45:52;13.60;99.90
54140;DHT22;40046;53.254;5.900;2022-09-09T03:48:19;13.60;99.90
54140;DHT22;40046;53.254;5.900;2022-09-09T03:50:51;13.60;99.90
54140;DHT22;40046;53.254;5.900;2022-09-09T03:53:18;13.60;99.90
54140;DHT22;40046;53.254;5.900;2022-09-09T03:55:50;13.60;99.90
54140;DHT22;40046;53.254;5.900;2022-09-09T03:58:18;13.60;99.90
54140;DHT22;40046;53.254;5.900;2022-09-09T04:03:21;13.60;99.90
54140;DHT22;40046;53.254;5.900;2022-09-09T04:05:51;13.60;99.90
54140;DHT22;40046;53.254;5.900;2022-09-09T04:08:19;13.60;99.90
54140;DHT22;40046;53.254;5.900;2022-09-09T04:10:47;13.50;99.90
54140;DHT22;40046;53.254;5.900;2022-09-09T04:13:14;13.50;99.90
54140;DHT22;40046;53.254;5.900;2022-09-09T04:15:42;13.50;99.90
54140;DHT22;40046;53.254;5.900;2022-09-09T04:18:09;13.50;99.90
54140;DHT22;40046;53.254;5.900;2022-09-09T04:20:35;13.50;99.90
54140;DHT22;40046;53.254;5.900;2022-09-09T04:23:01;13.50;99.90
54140;DHT22;40046;53.254;5.900;2022-09-09T04:25:28;13.50;99.90
54140;DHT22;40046;53.254;5.900;2022-09-09T04:27:55;13.50;99.90
54140;DHT22;40046;53.254;5.900;2022-09-09T04:30:22;13.50;99.90
54140;DHT22;40046;53.254;5.900;2022-09-09T04:32:48;13.50;99.90
54140;DHT22;40046;53.254;5.900;2022-09-09T04:35:14;13.50;99.90
54140;DHT22;40046;53.254;5.900;2022-09-09T04:37:40;13.50;99.90
54140;DHT22;40046;53.254;5.900;2022-09-09T04:40:07;13.50;99.90
54140;DHT22;40046;53.254;5.900;2022-09-09T04:42:36;13.50;99.90
54140;DHT22;40046;53.254;5.900;2022-09-09T04:45:02;13.50;99.90
54140;DHT22;40046;53.254;5.900;2022-09-09T04:47:28;13.50;99.90
54140;DHT22;40046;53.254;5.900;2022-09-09T04:49:54;13.50;99.90
54140;DHT22;40046;53.254;5.900;2022-09-09T04:52:21;13.50;99.90
54140;DHT22;40046;53.254;5.900;2022-09-09T04:54:46;13.50;99.90
54140;DHT22;40046;53.254;5.900;2022-09-09T04:57:13;13.50;99.90
54140;DHT22;40046;53.254;5.900;2022-09-09T04:59:39;13.60;99.90
54140;DHT22;40046;53.254;5.900;2022-09-09T05:02:05;13.60;99.90
54140;DHT22;40046;53.254;5.900;2022-09-09T05:04:31;13.60;99.90
54140;DHT22;40046;53.254;5.900;2022-09-09T05:06:59;13.60;99.90
54140;DHT22;40046;53.254;5.900;2022-09-09T05:09:25;13.60;99.90
54140;DHT22;40046;53.254;5.900;2022-09-09T05:11:51;13.70;99.90
54140;DHT22;40046;53.254;5.900;2022-09-09T05:14:27;13.70;99.90
54140;DHT22;40046;53.254;5.900;2022-09-09T05:16:53;13.70;99.90
54140;DHT22;40046;53.254;5.900;2022-09-09T05:19:21;13.70;99.90
54140;DHT22;40046;53.254;5.900;2022-09-09T05:21:48;13.80;99.90
54140;DHT22;40046;53.254;5.900;2022-09-09T05:24:17;13.80;99.90
54140;DHT22;40046;53.254;5.900;2022-09-09T05:26:45;13.80;99.90
54140;DHT22;40046;53.254;5.900;2022-09-09T05:29:11;13.80;99.90
54140;DHT22;40046;53.254;5.900;2022-09-09T05:31:37;13.80;99.90
54140;DHT22;40046;53.254;5.900;2022-09-09T05:34:08;13.90;99.90
54140;DHT22;40046;53.254;5.900;2022-09-09T05:36:34;13.90;99.90
54140;DHT22;40046;53.254;5.900;2022-09-09T05:39:00;13.90;99.90
54140;DHT22;40046;53.254;5.900;2022-09-09T05:41:29;13.90;99.90
54140;DHT22;40046;53.254;5.900;2022-09-09T05:43:59;14.00;99.90
54140;DHT22;40046;53.254;5.900;2022-09-09T05:46:26;14.00;99.90
54140;DHT22;40046;53.254;5.900;2022-09-09T05:48:54;14.10;99.90
54140;DHT22;40046;53.254;5.900;2022-09-09T05:51:26;14.10;99.90
54140;DHT22;40046;53.254;5.900;2022-09-09T05:53:56;14.20;99.90
54140;DHT22;40046;53.254;5.900;2022-09-09T05:56:28;14.20;99.90
54140;DHT22;40046;53.254;5.900;2022-09-09T05:58:56;14.20;99.90
54140;DHT22;40046;53.254;5.900;2022-09-09T06:01:25;14.20;99.90
54140;DHT22;40046;53.254;5.900;2022-09-09T06:03:52;14.30;99.90
54140;DHT22;40046;53.254;5.900;2022-09-09T06:06:22;14.30;99.90
54140;DHT22;40046;53.254;5.900;2022-09-09T06:08:50;14.20;99.90
54140;DHT22;40046;53.254;5.900;2022-09-09T06:11:25;14.30;99.90
54140;DHT22;40046;53.254;5.900;2022-09-09T06:13:52;14.30;99.90
54140;DHT22;40046;53.254;5.900;2022-09-09T06:16:21;14.30;99.90
54140;DHT22;40046;53.254;5.900;2022-09-09T06:18:49;14.40;99.90
54140;DHT22;40046;53.254;5.900;2022-09-09T06:21:27;14.40;99.90
54140;DHT22;40046;53.254;5.900;2022-09-09T06:23:54;14.40;99.90
54140;DHT22;40046;53.254;5.900;2022-09-09T06:26:39;14.50;99.90
54140;DHT22;40046;53.254;5.900;2022-09-09T06:29:10;14.50;99.90
54140;DHT22;40046;53.254;5.900;2022-09-09T06:31:37;14.60;99.90
54140;DHT22;40046;53.254;5.900;2022-09-09T06:34:13;14.60;99.90
54140;DHT22;40046;53.254;5.900;2022-09-09T06:36:41;14.70;99.90
54140;DHT22;40046;53.254;5.900;2022-09-09T06:39:08;14.70;99.90
54140;DHT22;40046;53.254;5.900;2022-09-09T06:41:37;14.80;99.90
54140;DHT22;40046;53.254;5.900;2022-09-09T06:44:06;14.90;99.90
54140;DHT22;40046;53.254;5.900;2022-09-09T06:46:39;14.90;99.90
54140;DHT22;40046;53.254;5.900;2022-09-09T06:49:06;14.90;99.90
54140;DHT22;40046;53.254;5.900;2022-09-09T06:51:38;15.00;99.90
54140;DHT22;40046;53.254;5.900;2022-09-09T06:54:13;15.10;99.90
54140;DHT22;40046;53.254;5.900;2022-09-09T06:56:42;15.20;99.90
54140;DHT22;40046;53.254;5.900;2022-09-09T06:59:15;15.20;99.90
54140;DHT22;40046;53.254;5.900;2022-09-09T07:01:42;15.30;99.90
54140;DHT22;40046;53.254;5.900;2022-09-09T07:04:16;15.30;99.90
54140;DHT22;40046;53.254;5.900;2022-09-09T07:06:46;15.30;99.90
54140;DHT22;40046;53.254;5.900;2022-09-09T07:09:19;15.40;99.90
54140;DHT22;40046;53.254;5.900;2022-09-09T07:11:50;15.30;99.90
54140;DHT22;40046;53.254;5.900;2022-09-09T07:14:29;15.30;99.90
54140;DHT22;40046;53.254;5.900;2022-09-09T07:17:28;15.30;99.90
54140;DHT22;40046;53.254;5.900;2022-09-09T07:20:31;15.30;99.90
54140;DHT22;40046;53.254;5.900;2022-09-09T07:23:19;15.30;99.90
54140;DHT22;40046;53.254;5.900;2022-09-09T07:26:15;15.40;99.90
54140;DHT22;40046;53.254;5.900;2022-09-09T07:29:25;15.40;99.90
54140;DHT22;40046;53.254;5.900;2022-09-09T07:32:27;15.40;99.90
54140;DHT22;40046;53.254;5.900;2022-09-09T07:35:30;15.40;99.90
54140;DHT22;40046;53.254;5.900;2022-09-09T07:41:28;15.50;99.90
54140;DHT22;40046;53.254;5.900;2022-09-09T07:44:27;15.40;99.90
54140;DHT22;40046;53.254;5.900;2022-09-09T07:47:51;15.40;99.90
54140;DHT22;40046;53.254;5.900;2022-09-09T07:51:02;15.40;99.90
54140;DHT22;40046;53.254;5.900;2022-09-09T07:53:52;15.40;99.90
54140;DHT22;40046;53.254;5.900;2022-09-09T07:56:55;15.50;99.90
54140;DHT22;40046;53.254;5.900;2022-09-09T07:59:27;15.50;99.90
54140;DHT22;40046;53.254;5.900;2022-09-09T08:02:32;15.60;99.90
54140;DHT22;40046;53.254;5.900;2022-09-09T08:05:12;15.70;99.90
54140;DHT22;40046;53.254;5.900;2022-09-09T08:08:22;15.80;99.90
54140;DHT22;40046;53.254;5.900;2022-09-09T08:13:53;15.90;99.90
54140;DHT22;40046;53.254;5.900;2022-09-09T08:16:48;16.00;99.90
54140;DHT22;40046;53.254;5.900;2022-09-09T08:19:46;16.10;99.90
54140;DHT22;40046;53.254;5.900;2022-09-09T08:22:27;16.30;99.90
54140;DHT22;40046;53.254;5.900;2022-09-09T08:25:27;16.40;99.90
54140;DHT22;40046;53.254;5.900;2022-09-09T08:28:23;16.50;99.90
54140;DHT22;40046;53.254;5.900;2022-09-09T08:33:52;16.80;99.90
54140;DHT22;40046;53.254;5.900;2022-09-09T08:37:00;16.90;99.90
54140;DHT22;40046;53.254;5.900;2022-09-09T08:39:59;17.00;99.90
54140;DHT22;40046;53.254;5.900;2022-09-09T08:42:50;17.00;99.90
54140;DHT22;40046;53.254;5.900;2022-09-09T08:52:17;17.30;99.90
54140;DHT22;40046;53.254;5.900;2022-09-09T09:03:09;17.40;99.90
54140;DHT22;40046;53.254;5.900;2022-09-09T09:08:35;17.50;99.90
54140;DHT22;40046;53.254;5.900;2022-09-09T09:11:50;17.50;99.90
54140;DHT22;40046;53.254;5.900;2022-09-09T09:15:08;17.50;99.90
54140;DHT22;40046;53.254;5.900;2022-09-09T09:18:51;17.60;99.90
54140;DHT22;40046;53.254;5.900;2022-09-09T09:28:15;17.60;99.90
54140;DHT22;40046;53.254;5.900;2022-09-09T09:31:14;17.60;99.90
54140;DHT22;40046;53.254;5.900;2022-09-09T09:33:56;17.60;99.90
54140;DHT22;40046;53.254;5.900;2022-09-09T09:43:22;17.80;99.90
54140;DHT22;40046;53.254;5.900;2022-09-09T09:45:56;18.00;99.90
54140;DHT22;40046;53.254;5.900;2022-09-09T09:49:32;18.00;99.90
54140;DHT22;40046;53.254;5.900;2022-09-09T09:52:37;18.20;99.90
54140;DHT22;40046;53.254;5.900;2022-09-09T09:55:27;18.20;99.90
54140;DHT22;40046;53.254;5.900;2022-09-09T09:58:18;18.30;99.90
54140;DHT22;40046;53.254;5.900;2022-09-09T10:00:57;18.30;99.90
54140;DHT22;40046;53.254;5.900;2022-09-09T10:03:49;18.40;99.90
54140;DHT22;40046;53.254;5.900;2022-09-09T10:06:50;18.60;99.90
54140;DHT22;40046;53.254;5.900;2022-09-09T10:10:02;18.80;99.90
54140;DHT22;40046;53.254;5.900;2022-09-09T10:12:34;19.00;99.90
54140;DHT22;40046;53.254;5.900;2022-09-09T10:19:05;19.30;99.90
54140;DHT22;40046;53.254;5.900;2022-09-09T10:28:45;19.20;99.90
54140;DHT22;40046;53.254;5.900;2022-09-09T10:33:27;19.00;99.90
54140;DHT22;40046;53.254;5.900;2022-09-09T10:35:44;19.10;99.90
54140;DHT22;40046;53.254;5.900;2022-09-09T10:39:28;19.20;99.90
54140;DHT22;40046;53.254;5.900;2022-09-09T10:42:25;19.50;99.90
54140;DHT22;40046;53.254;5.900;2022-09-09T10:45:39;19.60;99.90
54140;DHT22;40046;53.254;5.900;2022-09-09T10:51:02;19.80;99.90
54140;DHT22;40046;53.254;5.900;2022-09-09T10:56:15;20.00;99.90
54140;DHT22;40046;53.254;5.900;2022-09-09T11:01:14;20.10;99.90
54140;DHT22;40046;53.254;5.900;2022-09-09T11:03:42;20.10;99.90
54140;DHT22;40046;53.254;5.900;2022-09-09T11:06:25;20.30;99.90
54140;DHT22;40046;53.254;5.900;2022-09-09T11:08:53;20.40;99.90
54140;DHT22;40046;53.254;5.900;2022-09-09T11:11:42;20.50;99.90
54140;DHT22;40046;53.254;5.900;2022-09-09T11:14:32;20.50;99.90
54140;DHT22;40046;53.254;5.900;2022-09-09T11:20:22;20.40;99.90
54140;DHT22;40046;53.254;5.900;2022-09-09T11:23:01;20.40;99.90
54140;DHT22;40046;53.254;5.900;2022-09-09T11:25:35;20.40;99.90
54140;DHT22;40046;53.254;5.900;2022-09-09T11:28:26;20.30;99.90
54140;DHT22;40046;53.254;5.900;2022-09-09T11:42:27;20.50;99.90
54140;DHT22;40046;53.254;5.900;2022-09-09T11:44:52;20.50;99.90
54140;DHT22;40046;53.254;5.900;2022-09-09T11:47:28;20.40;99.90
54140;DHT22;40046;53.254;5.900;2022-09-09T11:50:27;20.30;99.90
54140;DHT22;40046;53.254;5.900;2022-09-09T11:53:25;20.30;99.90
54140;DHT22;40046;53.254;5.900;2022-09-09T11:56:13;20.30;99.90
54140;DHT22;40046;53.254;5.900;2022-09-09T11:58:44;20.30;99.90
54140;DHT22;40046;53.254;5.900;2022-09-09T12:01:39;20.40;99.90
54140;DHT22;40046;53.254;5.900;2022-09-09T12:06:48;20.60;99.90
54140;DHT22;40046;53.254;5.900;2022-09-09T12:17:30;20.50;99.90
54140;DHT22;40046;53.254;5.900;2022-09-09T12:20:21;20.40;99.90
54140;DHT22;40046;53.254;5.900;2022-09-09T12:22:58;20.40;99.90
54140;DHT22;40046;53.254;5.900;2022-09-09T12:25:58;20.40;99.90
54140;DHT22;40046;53.254;5.900;2022-09-09T12:34:38;20.40;99.90
54140;DHT22;40046;53.254;5.900;2022-09-09T12:39:59;20.20;99.90
54140;DHT22;40046;53.254;5.900;2022-09-09T12:42:26;20.20;99.90
54140;DHT22;40046;53.254;5.900;2022-09-09T12:45:02;20.30;99.90
54140;DHT22;40046;53.254;5.900;2022-09-09T12:47:48;20.40;99.90
54140;DHT22;40046;53.254;5.900;2022-09-09T12:52:42;20.50;99.90
54140;DHT22;40046;53.254;5.900;2022-09-09T12:55:24;20.40;99.90
54140;DHT22;40046;53.254;5.900;2022-09-09T12:57:53;20.30;99.90
54140;DHT22;40046;53.254;5.900;2022-09-09T13:00:21;20.20;99.90
54140;DHT22;40046;53.254;5.900;2022-09-09T13:02:54;20.20;99.90
54140;DHT22;40046;53.254;5.900;2022-09-09T13:05:25;20.20;99.90
54140;DHT22;40046;53.254;5.900;2022-09-09T13:08:00;20.40;99.90
54140;DHT22;40046;53.254;5.900;2022-09-09T13:10:29;20.50;99.90
54140;DHT22;40046;53.254;5.900;2022-09-09T13:12:57;20.70;99.90
54140;DHT22;40046;53.254;5.900;2022-09-09T13:15:26;20.70;99.90
54140;DHT22;40046;53.254;5.900;2022-09-09T13:17:59;20.70;99.90
54140;DHT22;40046;53.254;5.900;2022-09-09T13:20:27;20.80;99.90
54140;DHT22;40046;53.254;5.900;2022-09-09T13:22:54;20.80;99.90
54140;DHT22;40046;53.254;5.900;2022-09-09T13:25:26;20.70;99.90
54140;DHT22;40046;53.254;5.900;2022-09-09T13:28:04;20.70;99.90
54140;DHT22;40046;53.254;5.900;2022-09-09T13:30:35;20.80;99.90
54140;DHT22;40046;53.254;5.900;2022-09-09T13:35:57;20.70;99.90
54140;DHT22;40046;53.254;5.900;2022-09-09T13:38:23;20.70;99.90
54140;DHT22;40046;53.254;5.900;2022-09-09T13:41:10;20.70;99.90
54140;DHT22;40046;53.254;5.900;2022-09-09T13:43:46;20.70;99.90
54140;DHT22;40046;53.254;5.900;2022-09-09T13:46:25;20.70;99.90
54140;DHT22;40046;53.254;5.900;2022-09-09T13:48:57;20.70;99.90
54140;DHT22;40046;53.254;5.900;2022-09-09T13:51:38;20.60;99.90
54140;DHT22;40046;53.254;5.900;2022-09-09T13:54:06;20.50;99.90
54140;DHT22;40046;53.254;5.900;2022-09-09T13:56:33;20.20;99.90
54140;DHT22;40046;53.254;5.900;2022-09-09T13:58:59;20.00;99.90
54140;DHT22;40046;53.254;5.900;2022-09-09T14:01:25;19.90;99.90
54140;DHT22;40046;53.254;5.900;2022-09-09T14:03:53;19.70;99.90
54140;DHT22;40046;53.254;5.900;2022-09-09T14:06:19;19.60;99.90
54140;DHT22;40046;53.254;5.900;2022-09-09T14:08:51;19.70;99.90
54140;DHT22;40046;53.254;5.900;2022-09-09T14:11:18;19.70;99.90
54140;DHT22;40046;53.254;5.900;2022-09-09T14:13:44;20.00;99.90
54140;DHT22;40046;53.254;5.900;2022-09-09T14:16:10;20.10;99.90
54140;DHT22;40046;53.254;5.900;2022-09-09T14:18:36;20.20;99.90
54140;DHT22;40046;53.254;5.900;2022-09-09T14:21:03;20.20;99.90
54140;DHT22;40046;53.254;5.900;2022-09-09T14:23:29;20.30;99.90
54140;DHT22;40046;53.254;5.900;2022-09-09T14:25:55;20.30;99.90
54140;DHT22;40046;53.254;5.900;2022-09-09T14:28:21;20.30;99.90
54140;DHT22;40046;53.254;5.900;2022-09-09T14:30:47;20.30;99.90
54140;DHT22;40046;53.254;5.900;2022-09-09T14:33:15;20.30;99.90
54140;DHT22;40046;53.254;5.900;2022-09-09T14:35:42;20.30;99.90
54140;DHT22;40046;53.254;5.900;2022-09-09T14:38:09;20.30;99.90
54140;DHT22;40046;53.254;5.900;2022-09-09T14:40:36;20.40;99.90
54140;DHT22;40046;53.254;5.900;2022-09-09T14:43:02;20.40;99.90
54140;DHT22;40046;53.254;5.900;2022-09-09T14:45:28;20.40;99.90
54140;DHT22;40046;53.254;5.900;2022-09-09T14:47:54;20.40;99.90
54140;DHT22;40046;53.254;5.900;2022-09-09T14:50:21;20.40;99.90
54140;DHT22;40046;53.254;5.900;2022-09-09T14:52:47;20.40;99.90
54140;DHT22;40046;53.254;5.900;2022-09-09T14:55:13;20.50;99.90
54140;DHT22;40046;53.254;5.900;2022-09-09T14:57:39;20.60;99.90
54140;DHT22;40046;53.254;5.900;2022-09-09T15:00:07;20.60;99.90
54140;DHT22;40046;53.254;5.900;2022-09-09T15:02:33;20.70;99.90
54140;DHT22;40046;53.254;5.900;2022-09-09T15:04:59;20.70;99.90
54140;DHT22;40046;53.254;5.900;2022-09-09T15:07:25;20.60;99.90
54140;DHT22;40046;53.254;5.900;2022-09-09T15:09:52;20.60;99.90
54140;DHT22;40046;53.254;5.900;2022-09-09T15:12:18;20.60;99.90
54140;DHT22;40046;53.254;5.900;2022-09-09T15:14:45;20.60;99.90
54140;DHT22;40046;53.254;5.900;2022-09-09T15:17:11;20.50;99.90
54140;DHT22;40046;53.254;5.900;2022-09-09T15:19:37;20.40;99.90
54140;DHT22;40046;53.254;5.900;2022-09-09T15:22:06;20.20;99.90
54140;DHT22;40046;53.254;5.900;2022-09-09T15:24:33;20.00;99.90
54140;DHT22;40046;53.254;5.900;2022-09-09T15:27:00;19.80;99.90
54140;DHT22;40046;53.254;5.900;2022-09-09T15:29:26;19.60;99.90
54140;DHT22;40046;53.254;5.900;2022-09-09T15:31:54;19.50;99.90
54140;DHT22;40046;53.254;5.900;2022-09-09T15:34:21;19.30;99.90
54140;DHT22;40046;53.254;5.900;2022-09-09T15:36:47;19.10;99.90
54140;DHT22;40046;53.254;5.900;2022-09-09T15:39:17;18.90;99.90
54140;DHT22;40046;53.254;5.900;2022-09-09T15:41:47;18.80;99.90
54140;DHT22;40046;53.254;5.900;2022-09-09T15:44:14;18.70;99.90
54140;DHT22;40046;53.254;5.900;2022-09-09T15:46:46;18.70;99.90
54140;DHT22;40046;53.254;5.900;2022-09-09T15:49:16;18.70;99.90
54140;DHT22;40046;53.254;5.900;2022-09-09T15:51:45;18.70;99.90
54140;DHT22;40046;53.254;5.900;2022-09-09T15:54:14;18.70;99.90
54140;DHT22;40046;53.254;5.900;2022-09-09T15:56:42;18.80;99.90
54140;DHT22;40046;53.254;5.900;2022-09-09T15:59:08;18.80;99.90
54140;DHT22;40046;53.254;5.900;2022-09-09T16:01:34;18.80;99.90
54140;DHT22;40046;53.254;5.900;2022-09-09T16:04:00;18.90;99.90
54140;DHT22;40046;53.254;5.900;2022-09-09T16:06:28;18.90;99.90
54140;DHT22;40046;53.254;5.900;2022-09-09T16:09:06;18.90;99.90
54140;DHT22;40046;53.254;5.900;2022-09-09T16:12:09;19.00;99.90
54140;DHT22;40046;53.254;5.900;2022-09-09T16:14:59;18.90;99.90
54140;DHT22;40046;53.254;5.900;2022-09-09T16:17:54;18.80;99.90
54140;DHT22;40046;53.254;5.900;2022-09-09T16:21:00;18.80;99.90
54140;DHT22;40046;53.254;5.900;2022-09-09T16:23:26;18.70;99.90
54140;DHT22;40046;53.254;5.900;2022-09-09T16:25:55;18.70;99.90
54140;DHT22;40046;53.254;5.900;2022-09-09T16:28:21;18.70;99.90
54140;DHT22;40046;53.254;5.900;2022-09-09T16:30:46;18.70;99.90
54140;DHT22;40046;53.254;5.900;2022-09-09T16:33:12;18.60;99.90
54140;DHT22;40046;53.254;5.900;2022-09-09T16:35:40;18.60;99.90
54140;DHT22;40046;53.254;5.900;2022-09-09T16:38:06;18.50;99.90
54140;DHT22;40046;53.254;5.900;2022-09-09T16:40:36;18.50;99.90
54140;DHT22;40046;53.254;5.900;2022-09-09T16:43:05;18.40;99.90
54140;DHT22;40046;53.254;5.900;2022-09-09T16:45:32;18.40;99.90
54140;DHT22;40046;53.254;5.900;2022-09-09T16:48:01;18.40;99.90
54140;DHT22;40046;53.254;5.900;2022-09-09T16:50:27;18.30;99.90
54140;DHT22;40046;53.254;5.900;2022-09-09T16:52:53;18.30;99.90
54140;DHT22;40046;53.254;5.900;2022-09-09T16:55:19;18.40;99.90
54140;DHT22;40046;53.254;5.900;2022-09-09T16:57:49;18.30;99.90
54140;DHT22;40046;53.254;5.900;2022-09-09T17:00:15;18.20;99.90
54140;DHT22;40046;53.254;5.900;2022-09-09T17:02:44;18.20;99.90
54140;DHT22;40046;53.254;5.900;2022-09-09T17:05:11;18.20;99.90
54140;DHT22;40046;53.254;5.900;2022-09-09T17:07:38;18.20;99.90
54140;DHT22;40046;53.254;5.900;2022-09-09T17:10:04;18.10;99.90
54140;DHT22;40046;53.254;5.900;2022-09-09T17:12:31;18.10;99.90
54140;DHT22;40046;53.254;5.900;2022-09-09T17:14:57;18.00;99.90
54140;DHT22;40046;53.254;5.900;2022-09-09T17:17:25;18.00;99.90
54140;DHT22;40046;53.254;5.900;2022-09-09T17:19:52;18.00;99.90
54140;DHT22;40046;53.254;5.900;2022-09-09T17:22:18;18.00;99.90
54140;DHT22;40046;53.254;5.900;2022-09-09T17:24:46;17.90;99.90
54140;DHT22;40046;53.254;5.900;2022-09-09T17:27:11;17.90;99.90
54140;DHT22;40046;53.254;5.900;2022-09-09T17:29:38;17.90;99.90
54140;DHT22;40046;53.254;5.900;2022-09-09T17:32:05;17.90;99.90
54140;DHT22;40046;53.254;5.900;2022-09-09T17:34:33;17.80;99.90
54140;DHT22;40046;53.254;5.900;2022-09-09T17:36:59;17.80;99.90
54140;DHT22;40046;53.254;5.900;2022-09-09T17:39:25;17.80;99.90
54140;DHT22;40046;53.254;5.900;2022-09-09T17:41:51;17.80;99.90
54140;DHT22;40046;53.254;5.900;2022-09-09T17:44:18;17.70;99.90
54140;DHT22;40046;53.254;5.900;2022-09-09T17:46:45;17.70;99.90
54140;DHT22;40046;53.254;5.900;2022-09-09T17:49:14;17.70;99.90
54140;DHT22;40046;53.254;5.900;2022-09-09T17:51:41;17.60;99.90
54140;DHT22;40046;53.254;5.900;2022-09-09T17:54:15;17.70;99.90
54140;DHT22;40046;53.254;5.900;2022-09-09T17:56:42;17.70;99.90
54140;DHT22;40046;53.254;5.900;2022-09-09T17:59:09;17.70;99.90
54140;DHT22;40046;53.254;5.900;2022-09-09T18:01:38;17.70;99.90
54140;DHT22;40046;53.254;5.900;2022-09-09T18:04:05;17.70;99.90
54140;DHT22;40046;53.254;5.900;2022-09-09T18:06:38;17.70;99.90
54140;DHT22;40046;53.254;5.900;2022-09-09T18:09:07;17.70;99.90
54140;DHT22;40046;53.254;5.900;2022-09-09T18:11:36;17.70;99.90
54140;DHT22;40046;53.254;5.900;2022-09-09T18:14:08;17.70;99.90
54140;DHT22;40046;53.254;5.900;2022-09-09T18:16:37;17.70;99.90
54140;DHT22;40046;53.254;5.900;2022-09-09T18:19:06;17.60;99.90
54140;DHT22;40046;53.254;5.900;2022-09-09T18:21:34;17.60;99.90
54140;DHT22;40046;53.254;5.900;2022-09-09T18:24:05;17.60;99.90
54140;DHT22;40046;53.254;5.900;2022-09-09T18:26:31;17.50;99.90
54140;DHT22;40046;53.254;5.900;2022-09-09T18:29:04;17.50;99.90
54140;DHT22;40046;53.254;5.900;2022-09-09T18:31:30;17.50;99.90
54140;DHT22;40046;53.254;5.900;2022-09-09T18:33:59;17.40;99.90
54140;DHT22;40046;53.254;5.900;2022-09-09T18:36:28;17.40;99.90
54140;DHT22;40046;53.254;5.900;2022-09-09T18:38:59;17.40;99.90
54140;DHT22;40046;53.254;5.900;2022-09-09T18:41:27;17.30;99.90
54140;DHT22;40046;53.254;5.900;2022-09-09T18:43:56;17.30;99.90
54140;DHT22;40046;53.254;5.900;2022-09-09T18:46:23;17.30;99.90